Brownstown, Michigan
Current Conditions -  °F | °C
As of 7:53 PM on Friday 24 Oct 2014 (Local Time) from KDTW Reporting Station
Broken Clouds Broken Clouds  
Wind Chill: 54°   Ceiling: 4000
Heat Index: 54°   Visibility: 10mi
Dew Point: 45°   Wind: 8mph
Humidity: 72%   Direction: 200°SSW
Pressure: 30"   Gusts: NA
Location:  42.1166°N, 83.4023°W
Report Text: KDTW 242353Z 20007KT 10SM BKN040 12/07 A3000 RMK AO2 SLP161 T01220072 10161 20122 53002
Loading
Personal Weather Stations






























Interactive Weather Map
Tropical Storm Tracking
New forecast layout! Learn more

10-Day Weather Forecast

Advertisements
Track Severe Weather on mobile